Time;durP1;ratioP1;P1;durP2;ratioP2;P2;SDS_P1;SDS_P2;PMS_P1;PMS_P2;Temp;Humidity;BMP_temperature;BMP_pressure;BME280_temperature;BME280_humidity;BME280_pressure;Samples;Min_cycle;Max_cycle;Signal;HPM_P1;HPM_P2
2022/04/15 00:01:00;;;;;;;7.15;2.80;;;;;;;7.99;100.00;102073.91;6224193;28;20045;-71
2022/04/15 00:04:03;;;;;;;9.90;2.40;;;;;;;7.91;100.00;102065.41;6224667;28;20061;-71
2022/04/15 00:07:05;;;;;;;2.63;2.30;;;;;;;7.95;100.00;102074.91;6224763;28;20140;-71
2022/04/15 00:10:07;;;;;;;2.78;1.90;;;;;;;7.93;100.00;102073.19;6224039;28;20045;-71
2022/04/15 00:13:12;;;;;;;2.53;1.83;;;;;;;7.99;100.00;102070.44;6224304;28;20050;-71
2022/04/15 00:16:15;;;;;;;3.17;1.75;;;;;;;7.95;100.00;102074.91;6224280;28;20050;-71
2022/04/15 00:19:16;;;;;;;12.05;2.90;;;;;;;7.95;100.00;102069.66;6224520;28;20046;-71
2022/04/15 00:22:18;;;;;;;4.07;2.88;;;;;;;8.02;100.00;102080.84;6223592;28;20076;-71
2022/04/15 00:25:19;;;;;;;8.32;3.33;;;;;;;7.97;100.00;102074.88;6224581;28;20050;-71
2022/04/15 00:28:21;;;;;;;3.58;2.17;;;;;;;7.98;100.00;102068.72;6224312;28;20058;-71
2022/04/15 00:31:24;;;;;;;3.42;2.13;;;;;;;7.94;100.00;102072.31;6223307;28;20060;-71
2022/04/15 00:34:25;;;;;;;3.50;2.00;;;;;;;7.95;100.00;102068.78;6224165;28;20050;-71
2022/04/15 00:37:27;;;;;;;4.00;2.17;;;;;;;7.92;100.00;102074.97;6224020;28;20053;-71
2022/04/15 00:40:28;;;;;;;5.47;2.40;;;;;;;7.87;100.00;102072.44;6223135;28;20046;-71
2022/04/15 00:43:30;;;;;;;2.65;1.88;;;;;;;7.95;100.00;102077.53;6223621;28;20058;-72
2022/04/15 00:46:33;;;;;;;4.60;2.28;;;;;;;7.96;100.00;102086.25;6223934;28;20061;-71
2022/04/15 00:49:35;;;;;;;5.20;1.88;;;;;;;7.89;100.00;102077.63;6222984;28;20053;-71
2022/04/15 00:52:40;;;;;;;2.42;1.80;;;;;;;7.90;100.00;102079.34;6222759;28;20054;-71
2022/04/15 00:55:42;;;;;;;6.93;1.92;;;;;;;7.92;100.00;102084.56;6223353;28;20414;-70
2022/04/15 00:58:46;;;;;;;2.78;1.95;;;;;;;8.00;100.00;102080.03;6223548;28;20065;-71
2022/04/15 01:01:49;;;;;;;8.05;2.53;;;;;;;7.97;100.00;102073.09;6222721;28;20421;-71
2022/04/15 01:04:53;;;;;;;2.72;1.70;;;;;;;7.98;100.00;102073.97;6223374;28;20057;-72
2022/04/15 01:07:56;;;;;;;8.10;1.80;;;;;;;7.92;100.00;102079.34;6223642;28;20054;-70
2022/04/15 01:11:00;;;;;;;3.08;2.00;;;;;;;7.98;100.00;102081.81;6222589;28;20054;-72
2022/04/15 01:14:02;;;;;;;4.00;2.15;;;;;;;7.91;100.00;102086.34;6223052;28;20413;-71
2022/04/15 01:17:05;;;;;;;4.80;2.30;;;;;;;7.95;100.00;102081.88;6222895;28;20650;-71
2022/04/15 01:20:09;;;;;;;4.88;2.00;;;;;;;7.97;100.00;102080.09;6222662;28;20054;-71
2022/04/15 01:23:12;;;;;;;4.47;1.95;;;;;;;7.95;100.00;102082.75;6222450;28;20053;-71
2022/04/15 01:26:17;;;;;;;4.53;2.53;;;;;;;8.03;100.00;102090.44;6222993;28;20054;-71
2022/04/15 01:29:19;;;;;;;4.15;1.88;;;;;;;8.03;100.00;102093.91;6222047;28;20045;-71
2022/04/15 01:32:20;;;;;;;3.95;2.25;;;;;;;8.00;100.00;102096.63;6221920;28;20093;-71
2022/04/15 01:35:21;;;;;;;2.13;1.50;;;;;;;8.01;100.00;102092.22;6214665;28;20421;-72
2022/04/15 01:38:25;;;;;;;4.38;1.83;;;;;;;8.00;100.00;102099.22;6222590;28;20061;-71
2022/04/15 01:41:26;;;;;;;2.78;1.83;;;;;;;7.89;100.00;102099.44;6219819;28;20464;-71
2022/04/15 01:44:27;;;;;;;3.38;1.63;;;;;;;7.85;100.00;102097.75;6222413;28;20050;-71
2022/04/15 01:47:29;;;;;;;3.65;1.90;;;;;;;7.88;100.00;102102.09;6222347;28;20049;-71
2022/04/15 01:50:31;;;;;;;2.78;1.73;;;;;;;7.87;100.00;102101.22;6221700;28;20417;-72
2022/04/15 01:53:34;;;;;;;1.30;1.20;;;;;;;7.84;100.00;102100.44;6222521;28;20061;-72
2022/04/15 01:56:35;;;;;;;7.00;1.50;;;;;;;7.88;100.00;102105.56;6222276;28;20049;-71
2022/04/15 01:59:36;;;;;;;2.40;1.90;;;;;;;7.81;100.00;102105.72;6222316;28;20045;-72
2022/04/15 02:02:37;;;;;;;6.53;1.63;;;;;;;7.75;100.00;102104.09;6220973;28;20493;-71
2022/04/15 02:05:39;;;;;;;2.28;1.60;;;;;;;7.80;100.00;102107.47;6222401;28;20061;-71
2022/04/15 02:08:41;;;;;;;4.00;1.77;;;;;;;7.77;100.00;102106.69;6222162;28;20050;-70
2022/04/15 02:11:43;;;;;;;2.17;1.45;;;;;;;7.66;100.00;102113.88;6221550;28;20061;-70
2022/04/15 02:14:46;;;;;;;3.30;1.48;;;;;;;7.65;100.00;102109.53;6222087;28;20468;-71
2022/04/15 02:17:47;;;;;;;1.60;1.27;;;;;;;7.66;100.00;102112.13;6221959;28;20053;-71
2022/04/15 02:20:48;;;;;;;2.67;1.67;;;;;;;7.71;100.00;102112.03;6221482;28;20042;-72
2022/04/15 02:23:51;;;;;;;2.72;1.75;;;;;;;7.70;100.00;102115.53;6221861;28;20460;-71
2022/04/15 02:26:52;;;;;;;2.47;1.70;;;;;;;7.68;100.00;102119.94;6222058;28;20050;-71
2022/04/15 02:29:53;;;;;;;4.82;1.40;;;;;;;7.59;100.00;102121.84;6221518;28;20513;-71
2022/04/15 02:32:55;;;;;;;1.83;1.48;;;;;;;7.56;100.00;102115.81;6221776;28;20061;-71
2022/04/15 02:35:56;;;;;;;6.03;1.67;;;;;;;7.58;100.00;102127.09;6221884;28;20456;-71
2022/04/15 02:38:59;;;;;;;1.77;1.33;;;;;;;7.56;100.00;102111.44;6221849;28;20053;-71
2022/04/15 02:42:01;;;;;;;2.78;1.40;;;;;;;7.52;100.00;102127.22;6221205;28;20060;-71
2022/04/15 02:45:02;;;;;;;3.33;1.05;;;;;;;7.50;100.00;102118.53;6221513;28;20049;-71
2022/04/15 02:48:04;;;;;;;3.85;1.65;;;;;;;7.55;100.00;102112.34;6221767;28;20050;-71
2022/04/15 02:51:06;;;;;;;3.85;1.08;;;;;;;7.54;100.00;102121.06;6221184;28;20078;-71
2022/04/15 02:54:08;;;;;;;1.95;1.42;;;;;;;7.52;100.00;102122.84;6221808;28;20045;-71
2022/04/15 02:57:10;;;;;;;2.20;1.15;;;;;;;7.51;100.00;102121.13;6221560;28;20141;-71
2022/04/15 03:00:13;;;;;;;5.35;1.98;;;;;;;7.49;100.00;102122.03;6221348;28;20050;-71
2022/04/15 03:03:14;;;;;;;5.15;1.77;;;;;;;7.49;100.00;102116.78;6221114;28;20053;-71
2022/04/15 03:06:15;;;;;;;1.95;1.40;;;;;;;7.53;100.00;102124.56;6221424;28;20445;-71
2022/04/15 03:09:18;;;;;;;2.40;1.30;;;;;;;7.55;100.00;102121.94;6221423;28;20045;-71
2022/04/15 03:12:19;;;;;;;2.08;1.63;;;;;;;7.56;100.00;102131.50;6221819;28;20098;-71
2022/04/15 03:15:21;;;;;;;5.03;1.88;;;;;;;7.60;100.00;102125.31;6225844;28;20054;-71
2022/04/15 03:18:22;;;;;;;2.35;1.52;;;;;;;7.66;100.00;102116.50;6225852;28;20061;-71
2022/04/15 03:21:23;;;;;;;2.42;1.65;;;;;;;7.69;100.00;102129.53;6225204;28;20050;-71
2022/04/15 03:24:26;;;;;;;2.03;1.40;;;;;;;7.63;100.00;102120.91;6225594;28;20046;-71
2022/04/15 03:27:27;;;;;;;2.28;1.33;;;;;;;7.66;100.00;102121.72;6224760;28;20050;-70
2022/04/15 03:30:29;;;;;;;2.50;1.05;;;;;;;7.59;100.00;102121.84;6224212;28;20050;-71
2022/04/15 03:33:30;;;;;;;1.60;1.10;;;;;;;7.56;100.00;102118.41;6224554;28;20053;-70
2022/04/15 03:36:32;;;;;;;7.07;1.73;;;;;;;7.60;100.00;102133.16;6224622;28;20050;-70
2022/04/15 03:39:35;;;;;;;2.20;1.45;;;;;;;7.56;100.00;102124.50;6224807;28;20038;-71
2022/04/15 03:42:44;;;;;;;4.18;2.17;;;;;;;7.55;100.00;102130.63;6224373;28;20053;-71
2022/04/15 03:45:45;;;;;;;5.18;2.83;;;;;;;7.51;100.00;102125.50;6225326;28;20060;-70
2022/04/15 03:48:46;;;;;;;5.15;2.20;;;;;;;7.50;100.00;102127.25;6225101;28;20053;-71
2022/04/15 03:51:48;;;;;;;3.67;2.17;;;;;;;7.52;100.00;102133.31;6224308;28;20073;-71
2022/04/15 03:54:50;;;;;;;7.07;2.60;;;;;;;7.64;100.00;102134.84;6224774;28;20520;-70
2022/04/15 03:57:52;;;;;;;5.93;3.13;;;;;;;7.52;100.00;102138.53;6225298;28;20049;-71
2022/04/15 04:00:53;;;;;;;5.47;2.92;;;;;;;7.49;100.00;102141.19;6223979;28;20050;-71
2022/04/15 04:03:55;;;;;;;9.32;3.17;;;;;;;7.48;100.00;102146.47;6225037;28;20053;-71
2022/04/15 04:06:56;;;;;;;9.20;3.33;;;;;;;7.53;100.00;102155.94;6224820;28;20451;-71
2022/04/15 04:09:59;;;;;;;8.57;3.33;;;;;;;7.49;100.00;102153.41;6224136;28;20057;-71
2022/04/15 04:13:00;;;;;;;4.00;2.50;;;;;;;7.46;100.00;102164.81;6224160;28;20046;-70
2022/04/15 04:16:02;;;;;;;9.45;3.38;;;;;;;7.46;100.00;102169.19;6224418;28;20536;-71
2022/04/15 04:19:03;;;;;;;8.95;3.40;;;;;;;7.36;100.00;102166.72;6224192;28;20042;-70
2022/04/15 04:22:05;;;;;;;11.15;3.70;;;;;;;7.37;100.00;102168.44;6223550;28;20457;-71
2022/04/15 04:25:09;;;;;;;7.47;2.75;;;;;;;7.41;100.00;102177.09;6223815;28;20053;-71
2022/04/15 04:28:11;;;;;;;5.13;2.92;;;;;;;7.36;100.00;102171.97;6224069;28;20050;-71
2022/04/15 04:31:12;;;;;;;7.85;3.45;;;;;;;7.33;100.00;102179.84;6223517;28;20493;-71
2022/04/15 04:34:14;;;;;;;11.23;4.18;;;;;;;7.35;100.00;102179.81;6224137;28;20049;-70
2022/04/15 04:37:16;;;;;;;5.45;3.08;;;;;;;7.38;100.00;102185.84;6223963;28;20513;-70
2022/04/15 04:40:18;;;;;;;6.85;3.53;;;;;;;7.37;100.00;102197.22;6223186;28;20050;-72
2022/04/15 04:43:20;;;;;;;5.20;3.40;;;;;;;7.32;100.00;102198.19;6223497;28;20410;-71
2022/04/15 04:46:21;;;;;;;6.20;3.20;;;;;;;7.26;100.00;102201.75;6223937;28;20050;-71
2022/04/15 04:49:24;;;;;;;5.32;3.45;;;;;;;7.23;100.00;102212.28;6223546;28;20050;-71
2022/04/15 04:52:25;;;;;;;5.72;3.10;;;;;;;7.17;100.00;102209.72;6223205;28;20140;-71
2022/04/15 04:55:28;;;;;;;7.18;3.30;;;;;;;7.16;100.00;102213.25;6223465;28;20058;-70
2022/04/15 04:58:29;;;;;;;4.03;2.80;;;;;;;7.15;100.00;102215.88;6223649;28;20046;-71
2022/04/15 05:01:31;;;;;;;8.32;2.80;;;;;;;7.18;100.00;102215.84;6222580;28;20046;-71
2022/04/15 05:04:32;;;;;;;5.35;2.38;;;;;;;7.19;100.00;102212.34;6223275;28;20060;-71
2022/04/15 05:07:34;;;;;;;4.25;2.60;;;;;;;7.21;100.00;102215.78;6223215;28;20053;-70
2022/04/15 05:10:36;;;;;;;4.80;2.97;;;;;;;7.14;100.00;102217.66;6222363;28;20045;-71
2022/04/15 05:13:38;;;;;;;3.75;2.35;;;;;;;7.09;100.00;102214.25;6223248;28;20061;-70
2022/04/15 05:16:39;;;;;;;4.00;2.45;;;;;;;7.09;100.00;102227.31;6222872;28;20417;-71
2022/04/15 05:19:41;;;;;;;5.03;3.00;;;;;;;7.12;100.00;102235.94;6223000;28;20057;-71
2022/04/15 05:22:42;;;;;;;5.90;2.55;;;;;;;7.16;100.00;102234.16;6222304;28;20053;-71
2022/04/15 05:25:45;;;;;;;5.68;2.70;;;;;;;7.24;100.00;102231.44;6223125;28;20054;-71
2022/04/15 05:28:46;;;;;;;4.20;2.75;;;;;;;7.22;100.00;102230.56;6222100;28;20046;-71
2022/04/15 05:31:48;;;;;;;5.50;2.88;;;;;;;7.27;100.00;102247.09;6222096;28;20137;-70
2022/04/15 05:34:49;;;;;;;5.70;2.85;;;;;;;7.20;100.00;102237.59;6222330;28;20053;-71
2022/04/15 05:37:51;;;;;;;5.97;3.05;;;;;;;7.21;100.00;102239.31;6221943;28;20052;-71
2022/04/15 05:40:53;;;;;;;5.25;3.20;;;;;;;7.30;100.00;102252.25;6222023;28;20056;-71
2022/04/15 05:43:55;;;;;;;3.92;2.38;;;;;;;7.39;100.00;102252.09;6223015;28;20053;-71
2022/04/15 05:46:56;;;;;;;10.90;3.60;;;;;;;7.41;100.00;102255.56;6222652;28;20050;-71
2022/04/15 05:49:58;;;;;;;8.23;4.07;;;;;;;7.44;100.00;102257.25;6221677;28;20050;-71
2022/04/15 05:52:59;;;;;;;8.70;4.05;;;;;;;7.36;100.00;102252.16;6221996;28;20053;-70
2022/04/15 05:56:02;;;;;;;10.10;5.15;;;;;;;7.35;100.00;102263.50;6222263;28;20057;-72
2022/04/15 05:59:04;;;;;;;8.20;4.68;;;;;;;7.35;100.00;102269.59;6222269;28;20057;-70
2022/04/15 06:02:05;;;;;;;9.82;4.55;;;;;;;7.37;100.00;102266.97;6219661;28;20409;-71
2022/04/15 06:05:08;;;;;;;7.28;4.03;;;;;;;7.44;100.00;102275.56;6220245;28;20061;-71
2022/04/15 06:08:09;;;;;;;9.63;4.20;;;;;;;7.47;100.00;102278.13;6222123;28;20050;-71
2022/04/15 06:11:12;;;;;;;7.72;3.90;;;;;;;7.50;100.00;102283.34;6221319;28;20046;-71
2022/04/15 06:14:13;;;;;;;8.82;4.53;;;;;;;7.55;100.00;102294.59;6222081;28;20053;-71
2022/04/15 06:17:16;;;;;;;6.47;4.10;;;;;;;7.51;100.00;102296.38;6221966;28;20054;-71
2022/04/15 06:20:18;;;;;;;6.13;3.58;;;;;;;7.41;100.00;102297.41;6220393;28;20046;-72
2022/04/15 06:23:20;;;;;;;5.88;3.42;;;;;;;7.45;100.00;102299.09;6221437;28;20449;-71
2022/04/15 06:26:22;;;;;;;5.20;3.05;;;;;;;7.44;100.00;102312.19;6220529;28;20046;-71
2022/04/15 06:29:24;;;;;;;6.65;3.42;;;;;;;7.39;100.00;102309.63;6219907;28;20117;-71
2022/04/15 06:32:25;;;;;;;9.43;3.90;;;;;;;7.45;100.00;102306.06;6219491;28;20050;-71
2022/04/15 06:35:27;;;;;;;10.90;3.80;;;;;;;7.47;100.00;102304.28;6220170;28;20053;-71
2022/04/15 06:38:28;;;;;;;6.13;3.88;;;;;;;7.53;100.00;102312.91;6220701;28;20514;-72
2022/04/15 06:41:31;;;;;;;8.15;4.47;;;;;;;7.48;100.00;102309.50;6219724;28;20042;-70
2022/04/15 06:44:36;;;;;;;13.23;4.35;;;;;;;7.50;100.00;102309.50;6220975;28;20057;-70
2022/04/15 06:47:37;;;;;;;11.93;4.85;;;;;;;7.58;100.00;102310.22;6222598;28;20445;-71
2022/04/15 06:50:38;;;;;;;12.63;5.07;;;;;;;7.59;100.00;102323.28;6225891;28;20049;-71
2022/04/15 06:53:40;;;;;;;8.15;4.47;;;;;;;7.70;100.00;102317.00;6226258;28;20432;-72
2022/04/15 06:56:42;;;;;;;13.48;5.10;;;;;;;7.71;100.00;102321.34;6226249;28;20509;-71
2022/04/15 06:59:44;;;;;;;9.48;4.53;;;;;;;7.83;100.00;102327.25;6225839;28;20053;-71
2022/04/15 07:02:45;;;;;;;9.13;4.63;;;;;;;7.99;100.00;102329.59;6225562;28;20050;-71
2022/04/15 07:05:47;;;;;;;9.13;4.32;;;;;;;7.86;100.00;102334.22;6226169;28;20046;-71
2022/04/15 07:08:48;;;;;;;10.52;4.13;;;;;;;7.95;100.00;102341.00;6225781;28;20049;-70
2022/04/15 07:11:51;;;;;;;10.15;4.70;;;;;;;7.82;100.00;102340.38;6225457;28;20050;-71
2022/04/15 07:14:52;;;;;;;10.50;5.13;;;;;;;7.85;100.00;102351.63;6225777;28;20053;-71
2022/04/15 07:17:55;;;;;;;9.40;3.78;;;;;;;7.83;100.00;102344.72;6226034;28;20050;-71
2022/04/15 07:20:57;;;;;;;9.38;4.30;;;;;;;7.83;100.00;102347.34;6224791;28;20478;-72
2022/04/15 07:23:58;;;;;;;10.93;4.53;;;;;;;7.86;100.00;102356.00;6225952;28;20057;-71
2022/04/15 07:27:01;;;;;;;12.07;4.68;;;;;;;7.83;100.00;102349.94;6225654;28;20061;-72
2022/04/15 07:30:03;;;;;;;7.95;3.75;;;;;;;7.88;100.00;102355.97;6224462;28;20046;-71
2022/04/15 07:33:04;;;;;;;8.57;4.78;;;;;;;7.97;100.00;102360.19;6224923;28;20050;-71
2022/04/15 07:36:31;;;;;;;14.30;4.93;;;;;;;7.96;100.00;102350.63;6225032;28;20046;-71
2022/04/15 07:39:27;;;;;;;12.20;5.28;;;;;;;7.99;100.00;102351.41;6225253;28;20065;-72
2022/04/15 07:42:30;;;;;;;9.40;4.13;;;;;;;8.06;100.00;102360.91;6222914;28;20066;-70
2022/04/15 07:45:31;;;;;;;12.40;5.05;;;;;;;7.88;100.00;102359.44;6225227;28;20053;-71
2022/04/15 07:48:33;;;;;;;6.88;4.07;;;;;;;7.97;100.00;102362.81;6224704;28;20054;-71
2022/04/15 07:51:35;;;;;;;9.45;4.10;;;;;;;7.99;100.00;102364.50;6224504;28;20497;-72
2022/04/15 07:54:36;;;;;;;11.02;3.53;;;;;;;8.06;100.00;102374.00;6224987;28;20050;-71
2022/04/15 07:57:39;;;;;;;10.98;4.60;;;;;;;8.20;100.00;102363.28;6225059;28;20525;-71
2022/04/15 08:00:42;;;;;;;13.27;3.95;;;;;;;8.29;100.00;102367.50;6223127;28;20046;-72
2022/04/15 08:03:44;;;;;;;8.80;3.75;;;;;;;8.36;100.00;102371.75;6224893;28;20580;-70
2022/04/15 08:06:46;;;;;;;10.68;3.58;;;;;;;8.28;100.00;102374.50;6224869;28;20048;-71
2022/04/15 08:09:47;;;;;;;8.48;4.10;;;;;;;8.31;100.00;102376.19;6223981;28;20057;-71
2022/04/15 08:12:50;;;;;;;9.23;4.13;;;;;;;8.41;100.00;102376.94;6224440;28;20525;-71
2022/04/15 08:15:53;;;;;;;7.53;3.38;;;;;;;8.51;100.00;102378.50;6224545;28;20521;-71
2022/04/15 08:18:56;;;;;;;8.95;4.38;;;;;;;8.62;100.00;102384.38;6224424;28;20057;-71
2022/04/15 08:21:57;;;;;;;8.35;3.35;;;;;;;8.59;100.00;102390.56;6223513;28;20088;-69
2022/04/15 08:24:59;;;;;;;7.30;4.10;;;;;;;8.66;100.00;102388.66;6224261;28;20064;-71
2022/04/15 08:28:01;;;;;;;8.02;3.75;;;;;;;8.52;100.00;102386.31;6224032;28;20061;-71
2022/04/15 08:31:03;;;;;;;8.88;3.72;;;;;;;8.61;100.00;102387.91;6223454;28;20108;-71
2022/04/15 08:34:04;;;;;;;8.68;3.95;;;;;;;8.66;100.00;102396.53;6223575;28;20042;-70
2022/04/15 08:37:06;;;;;;;6.97;4.07;;;;;;;8.78;100.00;102400.69;6224160;28;20067;-70
2022/04/15 08:40:08;;;;;;;13.38;3.63;;;;;;;8.93;100.00;102407.38;6223626;28;20054;-71
2022/04/15 08:43:11;;;;;;;8.57;4.15;;;;;;;8.73;100.00;102403.41;6223281;28;20046;-71
2022/04/15 08:46:13;;;;;;;9.07;3.35;;;;;;;8.67;100.00;102421.84;6223617;28;20065;-71
2022/04/15 08:49:19;;;;;;;10.52;4.10;;;;;;;8.78;100.00;102416.41;6223430;28;20520;-71
2022/04/15 08:52:20;;;;;;;7.22;4.00;;;;;;;8.80;100.00;102417.25;6223019;28;20069;-71
2022/04/15 08:55:22;;;;;;;9.10;3.85;;;;;;;8.77;100.00;102419.94;6223407;28;20486;-70
2022/04/15 08:58:25;;;;;;;10.65;4.35;;;;;;;8.73;100.00;102423.50;6223589;28;20483;-71
2022/04/15 09:01:26;;;;;;;9.23;4.93;;;;;;;8.81;100.00;102426.81;6221223;28;20045;-70
2022/04/15 09:04:28;;;;;;;9.57;4.22;;;;;;;8.81;100.00;102432.97;6221945;28;20379;-71
2022/04/15 09:07:30;;;;;;;11.35;4.47;;;;;;;8.70;100.00;102431.41;6212614;28;20054;-71
2022/04/15 09:10:33;;;;;;;12.00;5.60;;;;;;;8.75;100.00;102443.53;6222204;28;20061;-70
2022/04/15 09:13:37;;;;;;;10.82;4.72;;;;;;;8.71;100.00;102441.88;6222937;28;20049;-71
2022/04/15 09:16:40;;;;;;;13.80;4.68;;;;;;;8.65;100.00;102449.84;6223278;28;20128;-71
2022/04/15 09:19:42;;;;;;;17.50;6.97;;;;;;;8.60;100.00;102442.06;6223206;28;20483;-71
2022/04/15 09:22:43;;;;;;;14.93;6.10;;;;;;;8.54;100.00;102452.66;6222291;28;20046;-70
2022/04/15 09:25:45;;;;;;;7.88;3.90;;;;;;;8.41;100.00;102453.78;6222845;28;20434;-71
2022/04/15 09:28:48;;;;;;;10.63;4.50;;;;;;;8.37;100.00;102462.56;6222066;28;20046;-71
2022/04/15 09:31:55;;;;;;;5.57;3.38;;;;;;;8.30;100.00;102467.00;6221943;28;20512;-71
2022/04/15 09:34:58;;;;;;;8.88;4.18;;;;;;;8.21;100.00;102475.00;6221975;28;20050;-71
2022/04/15 09:38:03;;;;;;;14.32;5.60;;;;;;;8.11;100.00;102470.78;6219081;28;20519;-71
2022/04/15 09:41:19;;;;;;;9.55;4.78;;;;;;;8.11;100.00;102476.91;6218130;28;20038;-70
2022/04/15 09:44:31;;;;;;;7.50;4.22;;;;;;;7.94;100.00;102475.41;6221679;28;20054;-70
2022/04/15 09:47:32;;;;;;;13.10;5.00;;;;;;;7.87;100.00;102485.13;6222343;28;20576;-71
2022/04/15 09:50:35;;;;;;;12.30;5.18;;;;;;;7.75;100.00;102491.38;6221981;28;20053;-71
2022/04/15 09:53:36;;;;;;;9.05;4.50;;;;;;;7.72;100.00;102493.16;6222313;28;20072;-70
2022/04/15 09:56:39;;;;;;;11.38;5.22;;;;;;;7.68;100.00;102494.97;6222415;28;20461;-71
2022/04/15 09:59:47;;;;;;;9.32;4.93;;;;;;;7.75;100.00;102498.38;6222221;28;20046;-71
2022/04/15 10:02:51;;;;;;;10.98;5.38;;;;;;;7.73;100.00;102500.16;6222308;28;20046;-71
2022/04/15 10:05:54;;;;;;;16.58;4.65;;;;;;;7.70;100.00;102506.28;6222237;28;20057;-71
2022/04/15 10:08:59;;;;;;;7.50;3.97;;;;;;;7.68;100.00;102515.06;6222364;28;20080;-71
2022/04/15 10:12:02;;;;;;;14.90;5.13;;;;;;;7.71;100.00;102518.47;6217966;28;20093;-72
2022/04/15 10:15:06;;;;;;;7.22;4.40;;;;;;;7.72;100.00;102521.94;6222018;28;20056;-71
2022/04/15 10:18:09;;;;;;;8.13;3.92;;;;;;;7.75;100.00;102519.31;6222163;28;20057;-70
2022/04/15 10:21:10;;;;;;;10.82;4.70;;;;;;;7.72;100.00;102519.34;6221275;28;20054;-71
2022/04/15 10:24:12;;;;;;;10.15;5.63;;;;;;;7.75;100.00;102519.31;6210979;28;20054;-71
2022/04/15 10:27:14;;;;;;;8.57;5.30;;;;;;;7.83;100.00;102523.56;6202435;28;20517;-70
2022/04/15 10:30:18;;;;;;;10.43;4.43;;;;;;;7.87;100.00;102521.78;6202549;28;20057;-70
2022/04/15 10:33:31;;;;;;;11.07;5.60;;;;;;;7.96;100.00;102532.13;6202427;28;20065;-71
2022/04/15 10:36:32;;;;;;;16.52;5.72;;;;;;;7.85;100.00;102527.00;6202708;28;20050;-70
2022/04/15 10:39:45;;;;;;;9.85;5.25;;;;;;;8.00;100.00;102520.72;6202076;28;20046;-70
2022/04/15 10:42:47;;;;;;;12.77;5.43;;;;;;;8.19;100.00;102526.53;6201974;28;20510;-70
2022/04/15 10:45:51;;;;;;;13.45;5.75;;;;;;;8.24;100.00;102523.84;6202183;28;20054;-69
2022/04/15 10:48:53;;;;;;;18.10;6.07;;;;;;;8.19;100.00;102525.69;6201899;28;20435;-69
2022/04/15 10:52:00;;;;;;;14.88;5.68;;;;;;;8.43;100.00;102527.09;6201414;28;20546;-68
2022/04/15 10:55:03;;;;;;;12.82;6.13;;;;;;;8.36;100.00;102523.69;6202021;28;20414;-69
2022/04/15 10:58:13;;;;;;;14.90;5.78;;;;;;;8.31;100.00;102522.84;6201988;28;20057;-68
2022/04/15 11:01:19;;;;;;;9.50;5.18;;;;;;;8.37;100.00;102528.06;6201193;28;20047;-70
2022/04/15 11:04:24;;;;;;;7.25;4.10;;;;;;;8.40;100.00;102525.38;6201761;28;20089;-69
2022/04/15 11:07:27;;;;;;;11.35;5.18;;;;;;;8.50;100.00;102528.75;6201831;28;20086;-69
2022/04/15 11:10:58;;;;;;;14.80;5.35;;;;;;;8.53;100.00;102512.94;6200747;28;20053;-70
2022/04/15 11:14:03;;;;;;;13.43;4.68;;;;;;;8.77;100.00;102514.31;6201480;28;20054;-69
2022/04/15 11:17:09;;;;;;;9.63;5.40;;;;;;;9.04;100.00;102511.19;6201333;28;20069;-69
2022/04/15 11:20:11;;;;;;;14.18;5.03;;;;;;;9.18;100.00;102516.16;6201373;28;20054;-69
2022/04/15 11:23:13;;;;;;;10.52;4.82;;;;;;;9.43;100.00;102519.16;6200835;28;20493;-70
2022/04/15 11:26:15;;;;;;;12.48;6.13;;;;;;;9.42;100.00;102520.06;6201517;28;20054;-69
2022/04/15 11:29:16;;;;;;;12.98;5.93;;;;;;;9.60;100.00;102519.69;6206723;28;20073;-69
2022/04/15 11:32:19;;;;;;;10.65;5.32;;;;;;;9.62;100.00;102520.50;6224569;28;20057;-69
2022/04/15 11:35:28;;;;;;;14.93;6.35;;;;;;;9.60;100.00;102524.09;6223990;28;20508;-69
2022/04/15 11:38:29;;;;;;;13.38;6.07;;;;;;;9.69;100.00;102523.03;6225501;28;20045;-69
2022/04/15 11:41:31;;;;;;;13.50;5.60;;;;;;;9.70;100.00;102509.84;6224041;28;20054;-70
2022/04/15 11:44:33;;;;;;;13.10;6.85;;;;;;;9.75;100.00;102517.63;6225091;28;20512;-67
2022/04/15 11:47:36;;;;;;;12.57;6.63;;;;;;;9.91;100.00;102516.41;6224882;28;20045;-67
2022/04/15 11:50:37;;;;;;;12.00;6.10;;;;;;;9.65;100.00;102522.22;6224447;28;20053;-67
2022/04/15 11:53:39;;;;;;;13.10;6.70;;;;;;;9.47;100.00;102528.72;6225004;28;20053;-66
2022/04/15 11:56:42;;;;;;;12.23;5.80;;;;;;;9.48;100.00;102526.94;6224857;28;20057;-67
2022/04/15 11:59:45;;;;;;;15.20;7.63;;;;;;;9.59;100.00;102524.97;6224795;28;20181;-67
2022/04/15 12:02:47;;;;;;;12.63;6.45;;;;;;;10.00;100.00;102526.72;6220717;28;20042;-67
2022/04/15 12:05:49;;;;;;;15.43;6.90;;;;;;;9.94;100.00;102523.34;6224720;28;20050;-66
2022/04/15 12:08:51;;;;;;;16.77;7.13;;;;;;;9.94;100.00;102536.47;6218197;28;20073;-66
2022/04/15 12:11:53;;;;;;;14.93;6.78;;;;;;;9.77;100.00;102532.47;6223589;28;20124;-67
2022/04/15 12:14:54;;;;;;;14.23;7.18;;;;;;;9.70;100.00;102537.88;6224208;28;20057;-67
2022/04/15 12:17:58;;;;;;;15.02;7.28;;;;;;;9.88;100.00;102538.34;6224634;28;20509;-68
2022/04/15 12:21:00;;;;;;;12.43;6.38;;;;;;;10.06;100.00;102537.06;6223233;28;20050;-66
2022/04/15 12:24:06;;;;;;;15.32;6.03;;;;;;;9.96;100.00;102548.69;6224202;28;20062;-66
2022/04/15 12:27:08;;;;;;;14.23;6.97;;;;;;;9.84;100.00;102547.19;6224088;28;20045;-69
2022/04/15 12:30:10;;;;;;;9.32;5.88;;;;;;;9.92;100.00;102554.91;6223680;28;20494;-67
2022/04/15 12:33:12;;;;;;;13.55;5.60;;;;;;;9.97;100.00;102552.19;6223937;28;20046;-67
2022/04/15 12:36:14;;;;;;;12.57;5.75;;;;;;;9.90;100.00;102554.94;6223767;28;20057;-68
2022/04/15 12:39:15;;;;;;;9.80;6.22;;;;;;;9.75;100.00;102559.66;6224058;28;20147;-68
2022/04/15 12:42:27;;;;;;;13.27;6.43;;;;;;;9.75;100.00;102557.88;6221877;28;20085;-70
2022/04/15 12:45:28;;;;;;;16.67;6.63;;;;;;;9.90;100.00;102556.69;6223450;28;20054;-67
2022/04/15 12:48:32;;;;;;;11.55;6.70;;;;;;;9.84;100.00;102560.31;6223436;28;20054;-68
2022/04/15 12:51:37;;;;;;;12.02;6.53;;;;;;;9.66;100.00;102568.56;6223307;28;20049;-68
2022/04/15 12:54:58;;;;;;;12.23;6.43;;;;;;;9.64;100.00;102565.13;6223517;28;20081;-68
2022/04/15 12:58:01;;;;;;;11.40;6.15;;;;;;;9.69;100.00;102565.88;6223308;28;20422;-68
2022/04/15 13:01:03;;;;;;;10.68;6.18;;;;;;;9.79;100.00;102556.06;6222635;28;20533;-68
2022/04/15 13:04:05;;;;;;;15.38;5.45;;;;;;;9.92;100.00;102560.16;6223159;28;20045;-67
2022/04/15 13:07:07;;;;;;;11.07;5.80;;;;;;;9.89;100.00;102553.19;6223379;28;20053;-67
2022/04/15 13:10:10;;;;;;;13.77;6.50;;;;;;;9.88;100.00;102569.00;6222907;28;20054;-67
2022/04/15 13:13:12;;;;;;;12.90;6.22;;;;;;;9.94;100.00;102568.00;6222858;28;20057;-67
2022/04/15 13:16:14;;;;;;;10.82;6.18;;;;;;;9.82;100.00;102571.75;6223136;28;20065;-67
2022/04/15 13:19:17;;;;;;;12.68;5.97;;;;;;;9.78;100.00;102577.97;6223384;28;20050;-66
2022/04/15 13:22:19;;;;;;;14.50;5.75;;;;;;;9.66;100.00;102572.06;6222207;28;20045;-68
2022/04/15 13:25:20;;;;;;;15.02;7.07;;;;;;;9.86;100.00;102570.81;6223009;28;20065;-67
2022/04/15 13:28:21;;;;;;;17.05;6.82;;;;;;;10.00;100.00;102574.00;6222831;28;20432;-67
2022/04/15 13:31:23;;;;;;;12.85;5.28;;;;;;;9.90;100.00;102569.81;6222261;28;20045;-67
2022/04/15 13:34:25;;;;;;;14.23;6.10;;;;;;;9.93;100.00;102579.41;6222778;28;20050;-67
2022/04/15 13:37:27;;;;;;;11.00;5.93;;;;;;;9.96;100.00;102580.22;6222677;28;20069;-67
2022/04/15 13:40:28;;;;;;;9.07;5.13;;;;;;;9.96;100.00;102568.84;6221492;28;20057;-67
2022/04/15 13:43:29;;;;;;;11.50;5.60;;;;;;;10.03;100.00;102573.03;6220075;28;20521;-67
2022/04/15 13:46:31;;;;;;;14.20;5.93;;;;;;;10.62;100.00;102576.09;6222464;28;20069;-70
2022/04/15 13:49:33;;;;;;;13.45;5.82;;;;;;;11.24;100.00;102572.78;6222116;28;20505;-67
2022/04/15 13:59:14;;;;;;;7.63;4.47;;;;;;;12.32;99.76;102582.84;6220442;28;20129;-68
2022/04/15 14:02:16;;;;;;;8.55;4.47;;;;;;;12.37;100.00;102583.56;6221602;28;20125;-69
2022/04/15 14:05:19;;;;;;;9.52;4.47;;;;;;;12.15;100.00;102582.50;6222122;28;20056;-69
2022/04/15 14:08:21;;;;;;;12.88;4.88;;;;;;;11.90;100.00;102582.38;6221688;28;20054;-68
2022/04/15 14:11:23;;;;;;;10.70;5.10;;;;;;;11.76;100.00;102584.50;6213427;28;20513;-67